Wendt, South Dakota
Current Conditions -  °F | °C
As of 5:53 AM on Tuesday 27 Jan 2015 (Local Time) from KPIR Reporting Station
Clear Clear  
Wind Chill: 23°   Ceiling: Unl
Heat Index: 29°   Visibility: 10mi
Dew Point: 26°   Wind: 6mph
Humidity: 89%   Direction: 120°ESE
Pressure: 29.93"   Gusts: NA
Location:  44.3693°N, 100.04°W
Report Text: KPIR 271153Z AUTO 12005KT 10SM CLR M02/M03 A2993 RMK AO2 SLP150 T10171033 10006 21017 56010
Loading
Personal Weather Stations






























Interactive Weather Map New forecast layout! Learn more

10-Day Weather Forecast

Advertisements
Track Severe Weather on mobile